KAFW/AFW METAR and TAF weather

Enter ICAO airport designator
Station Type Date Time Source
KAFW METAR 2019/02/17 07:53 UTC NOAA

KAFW 170753Z 02007KT 3/4SM R16L/P6000FT BR OVC002 06/05 A2972 RMK AO2 SFC VIS 1 1/2 RAB24E34 SLP069 P0000 T00610050


Station Type Date Time Source
KAFW Decoded METAR 2019/02/17 07:53 UTC NOAA

FORT WORTH ALLIANCE AIRPORT, TX, United States (KAFW) 32-59N 097-19W 233M
Feb 17, 2019 - 02:53 AM EST / 2019.02.17 0753 UTC
Wind: from the NNE (020 degrees) at 8 MPH (7 KT):0
Visibility: 3/4 mile(s):0
Sky conditions: overcast
Weather: mist
Precipitation last hour: A trace
Temperature: 43.0 F (6.1 C)
Dew Point: 41.0 F (5.0 C)
Relative Humidity: 92%
Pressure (altimeter): 29.72 in. Hg (1006 hPa)
ob: KAFW 170753Z 02007KT 3/4SM R16L/P6000FT BR OVC002 06/05 A2972 RMK AO2 SFC VIS 1 1/2 RAB24E34 SLP069 P0000 T00610050
cycle: 8

Station Type Date Time Source
KAFW TAF 2019/02/17 06:36 UTC NOAA

TAF KAFW 170535Z 1706/1806 16004KT 3/4SM -DZ BR OVC002
FM170700 02003KT 1/2SM FG OVC002
FM171000 35007KT 2SM BR OVC006
FM171300 36014KT P6SM SCT200


Example: see airport list